Aviation Digital Data Service (ADDS)

Output produced by TAFs form (2359 UTC 18 February 2018)
found at http://www.aviationweather.gov/adds/tafs/
 
METAR text: RJFS 182300Z 06004KT 9999 -RA FEW025 SCT045 BKN050 06/04 Q1022
Conditions at: RJFS (SAGA AIRPORT , JP) observed 2300 UTC 18 February 2018
Temperature: 6.0°C (43°F)
Dewpoint: 4.0°C (39°F) [RH = 87%]
Pressure (altimeter): 30.18 inches Hg (1022.0 mb)
Winds: from the ENE (60 degrees) at 5 MPH (4 knots; 2.1 m/s)
Visibility: 6 or more miles (10+ km)
Ceiling: 5000 feet AGL
Clouds: few clouds at 2500 feet AGL
scattered clouds at 4500 feet AGL
broken clouds at 5000 feet AGL
Weather: -RA  (light rain)

Forecast for: RJFS (SAGA AIRPORT , JP)
Text: TAF RJFS 182309Z 1900/2006 05007KT 9000 -SHRA FEW020 SCT030 BKN040
Forecast period: 0000 UTC 19 February 2018 to 0600 UTC 20 February 2018
Forecast type: FROM: standard forecast or significant change
Winds: from the NE (50 degrees) at 8 MPH (7 knots; 3.6 m/s)
Visibility: 6 miles (9 km)
Ceiling: 4000 feet AGL
Clouds: few clouds at 2000 feet AGL
scattered clouds at 3000 feet AGL
broken clouds at 4000 feet AGL
Weather: -SHRA  (light rain showers)
Text: TEMPO 1918/2000 4000 BR
Forecast period: 1800 UTC 19 February 2018 to 0000 UTC 20 February 2018
Forecast type: TEMPORARY: The following changes expected for less than half the time period
Visibility: 2.49 miles (4.01 km)
Weather: BR  (mist)